sensor_id;sensor_type;location;lat;lon;timestamp;P1;durP1;ratioP1;P2;durP2;ratioP2
43996;SDS011;34318;45.818;15.964;2024-01-10T00:00:48;51.40;;;46.13;;
43996;SDS011;34318;45.818;15.964;2024-01-10T00:03:15;50.20;;;44.83;;
43996;SDS011;34318;45.818;15.964;2024-01-10T00:05:42;52.08;;;46.80;;
43996;SDS011;34318;45.818;15.964;2024-01-10T00:08:10;49.03;;;43.97;;
43996;SDS011;34318;45.818;15.964;2024-01-10T00:10:38;50.63;;;45.28;;
43996;SDS011;34318;45.818;15.964;2024-01-10T00:13:06;49.75;;;44.85;;
43996;SDS011;34318;45.818;15.964;2024-01-10T00:15:33;48.05;;;43.22;;
43996;SDS011;34318;45.818;15.964;2024-01-10T00:18:00;50.00;;;44.78;;
43996;SDS011;34318;45.818;15.964;2024-01-10T00:20:28;47.40;;;42.58;;
43996;SDS011;34318;45.818;15.964;2024-01-10T00:22:55;47.88;;;43.03;;
43996;SDS011;34318;45.818;15.964;2024-01-10T00:25:23;46.22;;;41.35;;
43996;SDS011;34318;45.818;15.964;2024-01-10T00:27:50;46.65;;;41.97;;
43996;SDS011;34318;45.818;15.964;2024-01-10T00:30:17;46.97;;;42.17;;
43996;SDS011;34318;45.818;15.964;2024-01-10T00:32:45;44.33;;;40.03;;
43996;SDS011;34318;45.818;15.964;2024-01-10T00:35:13;47.60;;;43.05;;
43996;SDS011;34318;45.818;15.964;2024-01-10T00:37:40;45.63;;;40.83;;
43996;SDS011;34318;45.818;15.964;2024-01-10T00:40:07;45.92;;;41.05;;
43996;SDS011;34318;45.818;15.964;2024-01-10T00:42:35;44.92;;;40.08;;
43996;SDS011;34318;45.818;15.964;2024-01-10T00:45:02;45.53;;;40.90;;
43996;SDS011;34318;45.818;15.964;2024-01-10T00:47:30;43.53;;;39.13;;
43996;SDS011;34318;45.818;15.964;2024-01-10T00:49:57;44.25;;;39.60;;
43996;SDS011;34318;45.818;15.964;2024-01-10T00:52:25;44.08;;;39.88;;
43996;SDS011;34318;45.818;15.964;2024-01-10T00:54:52;42.22;;;38.03;;
43996;SDS011;34318;45.818;15.964;2024-01-10T00:57:19;44.08;;;39.70;;
43996;SDS011;34318;45.818;15.964;2024-01-10T00:59:46;44.30;;;39.70;;
43996;SDS011;34318;45.818;15.964;2024-01-10T01:02:14;41.65;;;37.53;;
43996;SDS011;34318;45.818;15.964;2024-01-10T01:04:41;42.88;;;38.38;;
43996;SDS011;34318;45.818;15.964;2024-01-10T01:07:09;41.67;;;37.63;;
43996;SDS011;34318;45.818;15.964;2024-01-10T01:09:36;40.78;;;36.60;;
43996;SDS011;34318;45.818;15.964;2024-01-10T01:12:03;39.85;;;35.90;;
43996;SDS011;34318;45.818;15.964;2024-01-10T01:14:31;41.80;;;37.60;;
43996;SDS011;34318;45.818;15.964;2024-01-10T01:16:58;40.80;;;36.80;;
43996;SDS011;34318;45.818;15.964;2024-01-10T01:19:26;38.90;;;35.13;;
43996;SDS011;34318;45.818;15.964;2024-01-10T01:21:53;41.88;;;37.45;;
43996;SDS011;34318;45.818;15.964;2024-01-10T01:24:20;39.47;;;35.50;;
43996;SDS011;34318;45.818;15.964;2024-01-10T01:26:47;37.05;;;33.33;;
43996;SDS011;34318;45.818;15.964;2024-01-10T01:29:15;39.47;;;35.55;;
43996;SDS011;34318;45.818;15.964;2024-01-10T01:31:42;39.03;;;35.20;;
43996;SDS011;34318;45.818;15.964;2024-01-10T01:34:09;38.17;;;34.40;;
43996;SDS011;34318;45.818;15.964;2024-01-10T01:36:37;38.05;;;34.00;;
43996;SDS011;34318;45.818;15.964;2024-01-10T01:39:04;39.28;;;35.40;;
43996;SDS011;34318;45.818;15.964;2024-01-10T01:41:32;37.30;;;33.53;;
43996;SDS011;34318;45.818;15.964;2024-01-10T01:43:59;38.83;;;34.83;;
43996;SDS011;34318;45.818;15.964;2024-01-10T01:46:26;36.92;;;33.15;;
43996;SDS011;34318;45.818;15.964;2024-01-10T01:48:54;37.63;;;34.08;;
43996;SDS011;34318;45.818;15.964;2024-01-10T01:51:21;36.45;;;32.65;;
43996;SDS011;34318;45.818;15.964;2024-01-10T01:53:49;37.53;;;33.72;;
43996;SDS011;34318;45.818;15.964;2024-01-10T01:56:17;35.33;;;31.58;;
43996;SDS011;34318;45.818;15.964;2024-01-10T01:58:44;36.30;;;32.78;;
43996;SDS011;34318;45.818;15.964;2024-01-10T02:01:13;34.85;;;31.35;;
43996;SDS011;34318;45.818;15.964;2024-01-10T02:03:41;36.03;;;32.55;;
43996;SDS011;34318;45.818;15.964;2024-01-10T02:06:08;34.22;;;30.77;;
43996;SDS011;34318;45.818;15.964;2024-01-10T02:08:35;35.47;;;31.77;;
43996;SDS011;34318;45.818;15.964;2024-01-10T02:11:03;34.08;;;30.63;;
43996;SDS011;34318;45.818;15.964;2024-01-10T02:13:31;32.80;;;29.60;;
43996;SDS011;34318;45.818;15.964;2024-01-10T02:15:59;32.55;;;29.35;;
43996;SDS011;34318;45.818;15.964;2024-01-10T02:18:26;34.03;;;30.63;;
43996;SDS011;34318;45.818;15.964;2024-01-10T02:20:54;40.25;;;29.05;;
43996;SDS011;34318;45.818;15.964;2024-01-10T02:23:21;34.00;;;30.50;;
43996;SDS011;34318;45.818;15.964;2024-01-10T02:25:49;32.45;;;29.35;;
43996;SDS011;34318;45.818;15.964;2024-01-10T02:28:16;33.25;;;29.85;;
43996;SDS011;34318;45.818;15.964;2024-01-10T02:30:44;32.22;;;29.00;;
43996;SDS011;34318;45.818;15.964;2024-01-10T02:33:13;33.25;;;29.85;;
43996;SDS011;34318;45.818;15.964;2024-01-10T02:35:40;31.38;;;28.23;;
43996;SDS011;34318;45.818;15.964;2024-01-10T02:38:08;31.77;;;28.73;;
43996;SDS011;34318;45.818;15.964;2024-01-10T02:40:35;31.42;;;28.23;;
43996;SDS011;34318;45.818;15.964;2024-01-10T02:43:02;31.60;;;28.42;;
43996;SDS011;34318;45.818;15.964;2024-01-10T02:45:30;32.92;;;29.40;;
43996;SDS011;34318;45.818;15.964;2024-01-10T02:47:57;30.10;;;27.13;;
43996;SDS011;34318;45.818;15.964;2024-01-10T02:50:24;31.98;;;28.83;;
43996;SDS011;34318;45.818;15.964;2024-01-10T02:52:51;30.25;;;27.10;;
43996;SDS011;34318;45.818;15.964;2024-01-10T02:55:19;29.00;;;26.10;;
43996;SDS011;34318;45.818;15.964;2024-01-10T02:57:46;29.88;;;26.90;;
43996;SDS011;34318;45.818;15.964;2024-01-10T03:00:13;30.52;;;27.33;;
43996;SDS011;34318;45.818;15.964;2024-01-10T03:02:40;28.88;;;25.95;;
43996;SDS011;34318;45.818;15.964;2024-01-10T03:05:08;29.60;;;26.60;;
43996;SDS011;34318;45.818;15.964;2024-01-10T03:07:35;28.25;;;25.38;;
43996;SDS011;34318;45.818;15.964;2024-01-10T03:10:03;29.27;;;26.33;;
43996;SDS011;34318;45.818;15.964;2024-01-10T03:12:30;27.75;;;25.10;;
43996;SDS011;34318;45.818;15.964;2024-01-10T03:14:57;27.30;;;24.60;;
43996;SDS011;34318;45.818;15.964;2024-01-10T03:17:25;27.77;;;24.92;;
43996;SDS011;34318;45.818;15.964;2024-01-10T03:19:52;27.08;;;24.27;;
43996;SDS011;34318;45.818;15.964;2024-01-10T03:22:19;27.73;;;24.95;;
43996;SDS011;34318;45.818;15.964;2024-01-10T03:24:47;26.05;;;23.60;;
43996;SDS011;34318;45.818;15.964;2024-01-10T03:27:14;27.45;;;24.98;;
43996;SDS011;34318;45.818;15.964;2024-01-10T03:29:41;26.13;;;23.50;;
43996;SDS011;34318;45.818;15.964;2024-01-10T03:32:08;27.02;;;24.42;;
43996;SDS011;34318;45.818;15.964;2024-01-10T03:34:36;27.27;;;24.70;;
43996;SDS011;34318;45.818;15.964;2024-01-10T03:37:03;28.13;;;25.38;;
43996;SDS011;34318;45.818;15.964;2024-01-10T03:39:32;27.30;;;24.42;;
43996;SDS011;34318;45.818;15.964;2024-01-10T03:41:59;25.30;;;22.70;;
43996;SDS011;34318;45.818;15.964;2024-01-10T03:44:26;26.15;;;23.65;;
43996;SDS011;34318;45.818;15.964;2024-01-10T03:46:54;26.05;;;23.50;;
43996;SDS011;34318;45.818;15.964;2024-01-10T03:49:21;24.33;;;21.92;;
43996;SDS011;34318;45.818;15.964;2024-01-10T03:51:48;24.65;;;22.25;;
43996;SDS011;34318;45.818;15.964;2024-01-10T03:54:15;24.38;;;22.08;;
43996;SDS011;34318;45.818;15.964;2024-01-10T03:56:43;23.50;;;21.23;;
43996;SDS011;34318;45.818;15.964;2024-01-10T03:59:10;24.70;;;22.30;;
43996;SDS011;34318;45.818;15.964;2024-01-10T04:01:37;24.50;;;22.10;;
43996;SDS011;34318;45.818;15.964;2024-01-10T04:04:05;23.17;;;21.00;;
43996;SDS011;34318;45.818;15.964;2024-01-10T04:06:33;25.13;;;22.60;;
43996;SDS011;34318;45.818;15.964;2024-01-10T04:09:01;24.13;;;21.77;;
43996;SDS011;34318;45.818;15.964;2024-01-10T04:11:28;24.13;;;21.73;;
43996;SDS011;34318;45.818;15.964;2024-01-10T04:13:56;23.13;;;20.83;;
43996;SDS011;34318;45.818;15.964;2024-01-10T04:16:23;22.13;;;20.02;;
43996;SDS011;34318;45.818;15.964;2024-01-10T04:18:50;22.65;;;20.52;;
43996;SDS011;34318;45.818;15.964;2024-01-10T04:21:17;24.10;;;21.75;;
43996;SDS011;34318;45.818;15.964;2024-01-10T04:23:45;25.25;;;22.75;;
43996;SDS011;34318;45.818;15.964;2024-01-10T04:26:12;22.90;;;20.67;;
43996;SDS011;34318;45.818;15.964;2024-01-10T04:28:39;22.50;;;20.30;;
43996;SDS011;34318;45.818;15.964;2024-01-10T04:31:07;22.02;;;19.92;;
43996;SDS011;34318;45.818;15.964;2024-01-10T04:33:35;23.15;;;20.85;;
43996;SDS011;34318;45.818;15.964;2024-01-10T04:36:02;23.55;;;21.30;;
43996;SDS011;34318;45.818;15.964;2024-01-10T04:38:30;22.48;;;20.13;;
43996;SDS011;34318;45.818;15.964;2024-01-10T04:40:58;23.10;;;20.83;;
43996;SDS011;34318;45.818;15.964;2024-01-10T04:43:25;21.92;;;19.70;;
43996;SDS011;34318;45.818;15.964;2024-01-10T04:45:52;22.23;;;19.88;;
43996;SDS011;34318;45.818;15.964;2024-01-10T04:48:20;22.67;;;20.52;;
43996;SDS011;34318;45.818;15.964;2024-01-10T04:50:47;21.88;;;19.88;;
43996;SDS011;34318;45.818;15.964;2024-01-10T04:53:14;20.88;;;18.92;;
43996;SDS011;34318;45.818;15.964;2024-01-10T04:55:41;20.58;;;18.58;;
43996;SDS011;34318;45.818;15.964;2024-01-10T04:58:09;20.70;;;18.60;;
43996;SDS011;34318;45.818;15.964;2024-01-10T05:00:36;21.23;;;19.23;;
43996;SDS011;34318;45.818;15.964;2024-01-10T05:03:03;20.27;;;18.27;;
43996;SDS011;34318;45.818;15.964;2024-01-10T05:05:31;20.80;;;18.73;;
43996;SDS011;34318;45.818;15.964;2024-01-10T05:07:58;20.13;;;18.23;;
43996;SDS011;34318;45.818;15.964;2024-01-10T05:10:25;19.80;;;17.90;;
43996;SDS011;34318;45.818;15.964;2024-01-10T05:12:52;19.65;;;17.75;;
43996;SDS011;34318;45.818;15.964;2024-01-10T05:15:20;19.30;;;17.38;;
43996;SDS011;34318;45.818;15.964;2024-01-10T05:17:47;20.55;;;17.85;;
43996;SDS011;34318;45.818;15.964;2024-01-10T05:20:14;21.35;;;19.23;;
43996;SDS011;34318;45.818;15.964;2024-01-10T05:22:42;21.10;;;18.90;;
43996;SDS011;34318;45.818;15.964;2024-01-10T05:25:09;19.60;;;17.70;;
43996;SDS011;34318;45.818;15.964;2024-01-10T05:27:36;19.00;;;17.10;;
43996;SDS011;34318;45.818;15.964;2024-01-10T05:30:03;19.42;;;17.45;;
43996;SDS011;34318;45.818;15.964;2024-01-10T05:32:31;18.40;;;16.65;;
43996;SDS011;34318;45.818;15.964;2024-01-10T05:35:00;18.98;;;17.08;;
43996;SDS011;34318;45.818;15.964;2024-01-10T05:37:28;17.80;;;16.00;;
43996;SDS011;34318;45.818;15.964;2024-01-10T05:39:55;18.75;;;16.85;;
43996;SDS011;34318;45.818;15.964;2024-01-10T05:42:22;17.13;;;15.52;;
43996;SDS011;34318;45.818;15.964;2024-01-10T05:44:50;17.30;;;15.73;;
43996;SDS011;34318;45.818;15.964;2024-01-10T05:47:18;19.17;;;17.10;;
43996;SDS011;34318;45.818;15.964;2024-01-10T05:49:45;17.73;;;16.10;;
43996;SDS011;34318;45.818;15.964;2024-01-10T05:52:13;17.63;;;15.75;;
43996;SDS011;34318;45.818;15.964;2024-01-10T05:54:40;18.10;;;16.30;;
43996;SDS011;34318;45.818;15.964;2024-01-10T05:57:07;17.55;;;15.60;;
43996;SDS011;34318;45.818;15.964;2024-01-10T05:59:34;18.67;;;16.70;;
43996;SDS011;34318;45.818;15.964;2024-01-10T06:02:02;16.75;;;15.15;;
43996;SDS011;34318;45.818;15.964;2024-01-10T06:04:31;18.92;;;17.08;;
43996;SDS011;34318;45.818;15.964;2024-01-10T06:06:58;18.08;;;15.55;;
43996;SDS011;34318;45.818;15.964;2024-01-10T06:09:26;19.50;;;17.50;;
43996;SDS011;34318;45.818;15.964;2024-01-10T06:11:53;20.98;;;18.88;;
43996;SDS011;34318;45.818;15.964;2024-01-10T06:14:20;21.40;;;19.30;;
43996;SDS011;34318;45.818;15.964;2024-01-10T06:16:47;27.45;;;22.02;;
43996;SDS011;34318;45.818;15.964;2024-01-10T06:19:16;26.90;;;24.10;;
43996;SDS011;34318;45.818;15.964;2024-01-10T06:21:44;36.33;;;28.63;;
43996;SDS011;34318;45.818;15.964;2024-01-10T06:24:12;34.40;;;30.45;;
43996;SDS011;34318;45.818;15.964;2024-01-10T06:26:39;34.90;;;31.05;;
43996;SDS011;34318;45.818;15.964;2024-01-10T06:29:06;47.47;;;36.20;;
43996;SDS011;34318;45.818;15.964;2024-01-10T06:31:34;41.50;;;36.22;;
43996;SDS011;34318;45.818;15.964;2024-01-10T06:34:01;45.30;;;38.75;;
43996;SDS011;34318;45.818;15.964;2024-01-10T06:36:29;47.00;;;42.05;;
43996;SDS011;34318;45.818;15.964;2024-01-10T06:38:56;45.35;;;40.55;;
43996;SDS011;34318;45.818;15.964;2024-01-10T06:41:23;45.85;;;38.67;;
43996;SDS011;34318;45.818;15.964;2024-01-10T06:43:53;48.85;;;43.08;;
43996;SDS011;34318;45.818;15.964;2024-01-10T06:46:21;54.47;;;45.08;;
43996;SDS011;34318;45.818;15.964;2024-01-10T06:48:48;51.42;;;45.72;;
43996;SDS011;34318;45.818;15.964;2024-01-10T06:51:16;54.90;;;49.05;;
43996;SDS011;34318;45.818;15.964;2024-01-10T06:53:43;60.72;;;50.17;;
43996;SDS011;34318;45.818;15.964;2024-01-10T06:56:11;59.65;;;52.13;;
43996;SDS011;34318;45.818;15.964;2024-01-10T06:58:38;61.17;;;54.78;;
43996;SDS011;34318;45.818;15.964;2024-01-10T07:01:11;59.13;;;52.80;;
43996;SDS011;34318;45.818;15.964;2024-01-10T07:03:40;65.28;;;55.78;;
43996;SDS011;34318;45.818;15.964;2024-01-10T07:06:07;67.60;;;56.40;;
43996;SDS011;34318;45.818;15.964;2024-01-10T07:08:35;65.65;;;58.28;;
43996;SDS011;34318;45.818;15.964;2024-01-10T07:11:02;62.05;;;55.35;;
43996;SDS011;34318;45.818;15.964;2024-01-10T07:13:30;59.53;;;52.72;;
43996;SDS011;34318;45.818;15.964;2024-01-10T07:15:58;58.42;;;52.30;;
43996;SDS011;34318;45.818;15.964;2024-01-10T07:18:28;56.83;;;50.65;;
43996;SDS011;34318;45.818;15.964;2024-01-10T07:20:56;56.75;;;50.70;;
43996;SDS011;34318;45.818;15.964;2024-01-10T07:23:23;58.85;;;52.47;;
43996;SDS011;34318;45.818;15.964;2024-01-10T07:25:50;57.00;;;50.35;;
43996;SDS011;34318;45.818;15.964;2024-01-10T07:28:18;57.40;;;49.40;;
43996;SDS011;34318;45.818;15.964;2024-01-10T07:30:45;56.17;;;50.05;;
43996;SDS011;34318;45.818;15.964;2024-01-10T07:33:13;56.53;;;50.40;;
43996;SDS011;34318;45.818;15.964;2024-01-10T07:35:42;58.08;;;49.72;;
43996;SDS011;34318;45.818;15.964;2024-01-10T07:38:09;59.83;;;49.47;;
43996;SDS011;34318;45.818;15.964;2024-01-10T07:40:36;57.45;;;47.80;;
43996;SDS011;34318;45.818;15.964;2024-01-10T07:43:04;54.70;;;48.55;;
43996;SDS011;34318;45.818;15.964;2024-01-10T07:45:31;53.80;;;46.00;;
43996;SDS011;34318;45.818;15.964;2024-01-10T07:47:59;51.35;;;44.78;;
43996;SDS011;34318;45.818;15.964;2024-01-10T07:50:27;49.60;;;44.42;;
43996;SDS011;34318;45.818;15.964;2024-01-10T07:52:55;51.17;;;45.58;;
43996;SDS011;34318;45.818;15.964;2024-01-10T07:55:22;52.13;;;46.63;;
43996;SDS011;34318;45.818;15.964;2024-01-10T07:57:50;50.25;;;42.50;;
43996;SDS011;34318;45.818;15.964;2024-01-10T08:00:18;50.40;;;43.63;;
43996;SDS011;34318;45.818;15.964;2024-01-10T08:02:46;52.30;;;46.65;;
43996;SDS011;34318;45.818;15.964;2024-01-10T08:05:16;53.90;;;48.20;;
43996;SDS011;34318;45.818;15.964;2024-01-10T08:07:43;56.38;;;50.42;;
43996;SDS011;34318;45.818;15.964;2024-01-10T08:10:10;57.78;;;50.42;;
43996;SDS011;34318;45.818;15.964;2024-01-10T08:12:39;54.17;;;48.28;;
43996;SDS011;34318;45.818;15.964;2024-01-10T08:15:10;53.53;;;46.92;;
43996;SDS011;34318;45.818;15.964;2024-01-10T08:17:37;51.95;;;46.40;;
43996;SDS011;34318;45.818;15.964;2024-01-10T08:20:05;49.03;;;43.80;;
43996;SDS011;34318;45.818;15.964;2024-01-10T08:22:33;49.08;;;43.83;;
43996;SDS011;34318;45.818;15.964;2024-01-10T08:25:00;51.78;;;46.28;;
43996;SDS011;34318;45.818;15.964;2024-01-10T08:27:29;153.65;;;138.40;;
43996;SDS011;34318;45.818;15.964;2024-01-10T08:29:56;187.88;;;169.30;;
43996;SDS011;34318;45.818;15.964;2024-01-10T08:32:23;180.77;;;163.10;;
43996;SDS011;34318;45.818;15.964;2024-01-10T08:34:51;164.65;;;148.52;;
43996;SDS011;34318;45.818;15.964;2024-01-10T08:37:18;164.70;;;147.88;;
43996;SDS011;34318;45.818;15.964;2024-01-10T08:39:45;158.73;;;142.85;;
43996;SDS011;34318;45.818;15.964;2024-01-10T08:42:12;158.00;;;141.82;;
43996;SDS011;34318;45.818;15.964;2024-01-10T08:44:40;156.45;;;140.60;;
43996;SDS011;34318;45.818;15.964;2024-01-10T08:47:07;178.23;;;160.85;;
43996;SDS011;34318;45.818;15.964;2024-01-10T08:49:34;230.27;;;208.35;;
43996;SDS011;34318;45.818;15.964;2024-01-10T08:52:02;240.57;;;217.90;;
43996;SDS011;34318;45.818;15.964;2024-01-10T08:54:30;180.48;;;162.88;;
43996;SDS011;34318;45.818;15.964;2024-01-10T08:56:57;154.45;;;138.77;;
43996;SDS011;34318;45.818;15.964;2024-01-10T08:59:25;127.32;;;114.32;;
43996;SDS011;34318;45.818;15.964;2024-01-10T09:01:54;127.57;;;115.30;;
43996;SDS011;34318;45.818;15.964;2024-01-10T09:04:21;117.18;;;105.35;;
43996;SDS011;34318;45.818;15.964;2024-01-10T09:06:49;105.70;;;94.82;;
43996;SDS011;34318;45.818;15.964;2024-01-10T09:09:18;107.35;;;96.20;;
43996;SDS011;34318;45.818;15.964;2024-01-10T09:11:49;99.13;;;88.95;;
43996;SDS011;34318;45.818;15.964;2024-01-10T09:14:16;93.45;;;83.82;;
43996;SDS011;34318;45.818;15.964;2024-01-10T09:16:44;94.18;;;84.40;;
43996;SDS011;34318;45.818;15.964;2024-01-10T09:19:11;91.97;;;82.22;;
43996;SDS011;34318;45.818;15.964;2024-01-10T09:21:41;89.57;;;80.18;;
43996;SDS011;34318;45.818;15.964;2024-01-10T09:24:08;86.28;;;77.50;;
43996;SDS011;34318;45.818;15.964;2024-01-10T09:26:53;86.78;;;77.63;;
43996;SDS011;34318;45.818;15.964;2024-01-10T09:29:21;83.85;;;75.10;;
43996;SDS011;34318;45.818;15.964;2024-01-10T09:31:48;82.82;;;74.32;;
43996;SDS011;34318;45.818;15.964;2024-01-10T09:34:16;82.72;;;74.15;;
43996;SDS011;34318;45.818;15.964;2024-01-10T09:36:43;79.22;;;71.30;;
43996;SDS011;34318;45.818;15.964;2024-01-10T09:39:10;80.82;;;72.30;;
43996;SDS011;34318;45.818;15.964;2024-01-10T09:41:49;79.55;;;71.22;;
43996;SDS011;34318;45.818;15.964;2024-01-10T09:44:18;76.60;;;68.65;;
43996;SDS011;34318;45.818;15.964;2024-01-10T09:46:49;75.60;;;67.97;;
43996;SDS011;34318;45.818;15.964;2024-01-10T09:49:18;74.20;;;66.32;;
43996;SDS011;34318;45.818;15.964;2024-01-10T09:51:49;73.18;;;65.28;;
43996;SDS011;34318;45.818;15.964;2024-01-10T09:54:17;72.80;;;65.13;;
43996;SDS011;34318;45.818;15.964;2024-01-10T09:56:47;72.50;;;65.13;;
43996;SDS011;34318;45.818;15.964;2024-01-10T09:59:14;70.18;;;62.80;;
43996;SDS011;34318;45.818;15.964;2024-01-10T10:01:42;70.07;;;62.78;;
43996;SDS011;34318;45.818;15.964;2024-01-10T10:04:11;68.55;;;61.25;;
43996;SDS011;34318;45.818;15.964;2024-01-10T10:06:39;69.30;;;61.67;;
43996;SDS011;34318;45.818;15.964;2024-01-10T10:09:07;68.35;;;60.75;;
43996;SDS011;34318;45.818;15.964;2024-01-10T10:11:35;66.03;;;59.03;;
43996;SDS011;34318;45.818;15.964;2024-01-10T10:14:15;65.22;;;58.42;;
43996;SDS011;34318;45.818;15.964;2024-01-10T10:16:42;68.60;;;60.17;;
43996;SDS011;34318;45.818;15.964;2024-01-10T10:19:10;64.53;;;57.83;;
43996;SDS011;34318;45.818;15.964;2024-01-10T10:21:49;64.90;;;58.22;;
43996;SDS011;34318;45.818;15.964;2024-01-10T10:24:17;63.47;;;56.53;;
43996;SDS011;34318;45.818;15.964;2024-01-10T10:26:47;70.85;;;58.28;;
43996;SDS011;34318;45.818;15.964;2024-01-10T10:29:17;59.70;;;53.60;;
43996;SDS011;34318;45.818;15.964;2024-01-10T10:31:47;59.13;;;53.00;;
43996;SDS011;34318;45.818;15.964;2024-01-10T10:34:16;59.92;;;53.58;;
43996;SDS011;34318;45.818;15.964;2024-01-10T10:36:51;77.22;;;65.55;;
43996;SDS011;34318;45.818;15.964;2024-01-10T10:39:18;68.78;;;61.13;;
43996;SDS011;34318;45.818;15.964;2024-01-10T10:41:46;68.57;;;60.50;;
43996;SDS011;34318;45.818;15.964;2024-01-10T10:44:16;89.07;;;79.68;;
43996;SDS011;34318;45.818;15.964;2024-01-10T10:46:49;163.40;;;147.23;;
43996;SDS011;34318;45.818;15.964;2024-01-10T10:49:36;164.80;;;148.00;;
43996;SDS011;34318;45.818;15.964;2024-01-10T10:52:09;159.23;;;143.00;;
43996;SDS011;34318;45.818;15.964;2024-01-10T10:54:36;157.38;;;141.02;;
43996;SDS011;34318;45.818;15.964;2024-01-10T10:57:04;154.88;;;139.65;;
43996;SDS011;34318;45.818;15.964;2024-01-10T10:59:32;150.75;;;135.90;;
43996;SDS011;34318;45.818;15.964;2024-01-10T11:02:01;149.85;;;134.70;;
43996;SDS011;34318;45.818;15.964;2024-01-10T11:04:28;146.52;;;131.85;;
43996;SDS011;34318;45.818;15.964;2024-01-10T11:06:56;146.77;;;131.95;;
43996;SDS011;34318;45.818;15.964;2024-01-10T11:09:23;145.80;;;131.13;;
43996;SDS011;34318;45.818;15.964;2024-01-10T11:17:35;133.55;;;120.25;;
43996;SDS011;34318;45.818;15.964;2024-01-10T11:25:27;136.90;;;122.90;;
43996;SDS011;34318;45.818;15.964;2024-01-10T11:27:56;140.98;;;126.55;;
43996;SDS011;34318;45.818;15.964;2024-01-10T11:30:30;137.02;;;123.00;;
43996;SDS011;34318;45.818;15.964;2024-01-10T11:41:21;139.80;;;125.78;;
43996;SDS011;34318;45.818;15.964;2024-01-10T11:46:36;143.05;;;128.43;;
43996;SDS011;34318;45.818;15.964;2024-01-10T11:49:11;145.32;;;131.02;;
43996;SDS011;34318;45.818;15.964;2024-01-10T11:51:43;143.00;;;128.70;;
43996;SDS011;34318;45.818;15.964;2024-01-10T11:54:34;145.25;;;130.57;;
43996;SDS011;34318;45.818;15.964;2024-01-10T11:57:00;145.25;;;130.75;;
43996;SDS011;34318;45.818;15.964;2024-01-10T11:59:28;150.23;;;135.57;;
43996;SDS011;34318;45.818;15.964;2024-01-10T12:01:57;141.23;;;127.20;;
43996;SDS011;34318;45.818;15.964;2024-01-10T12:04:24;145.40;;;131.25;;
43996;SDS011;34318;45.818;15.964;2024-01-10T12:07:11;149.68;;;135.15;;
43996;SDS011;34318;45.818;15.964;2024-01-10T12:09:39;150.40;;;135.73;;
43996;SDS011;34318;45.818;15.964;2024-01-10T12:12:08;156.02;;;140.48;;
43996;SDS011;34318;45.818;15.964;2024-01-10T12:14:37;152.63;;;137.48;;
43996;SDS011;34318;45.818;15.964;2024-01-10T12:17:05;149.77;;;135.15;;
43996;SDS011;34318;45.818;15.964;2024-01-10T12:19:36;143.40;;;129.15;;
43996;SDS011;34318;45.818;15.964;2024-01-10T12:22:05;146.05;;;131.77;;
43996;SDS011;34318;45.818;15.964;2024-01-10T12:24:34;140.85;;;126.85;;
43996;SDS011;34318;45.818;15.964;2024-01-10T12:27:05;123.50;;;111.15;;
43996;SDS011;34318;45.818;15.964;2024-01-10T12:29:32;121.18;;;109.07;;
43996;SDS011;34318;45.818;15.964;2024-01-10T12:31:59;107.32;;;96.47;;
43996;SDS011;34318;45.818;15.964;2024-01-10T12:34:27;79.30;;;71.22;;
43996;SDS011;34318;45.818;15.964;2024-01-10T12:36:54;67.45;;;61.05;;
43996;SDS011;34318;45.818;15.964;2024-01-10T12:39:22;52.72;;;47.42;;
43996;SDS011;34318;45.818;15.964;2024-01-10T12:41:50;58.08;;;52.42;;
43996;SDS011;34318;45.818;15.964;2024-01-10T12:44:17;61.10;;;54.97;;
43996;SDS011;34318;45.818;15.964;2024-01-10T12:46:51;64.47;;;57.50;;
43996;SDS011;34318;45.818;15.964;2024-01-10T12:49:19;65.60;;;58.38;;
43996;SDS011;34318;45.818;15.964;2024-01-10T12:51:46;67.55;;;60.28;;
43996;SDS011;34318;45.818;15.964;2024-01-10T12:54:15;68.38;;;61.20;;
43996;SDS011;34318;45.818;15.964;2024-01-10T12:56:43;70.07;;;62.80;;
43996;SDS011;34318;45.818;15.964;2024-01-10T12:59:12;71.38;;;64.10;;
43996;SDS011;34318;45.818;15.964;2024-01-10T13:01:40;72.20;;;64.88;;
43996;SDS011;34318;45.818;15.964;2024-01-10T13:04:08;77.63;;;69.28;;
43996;SDS011;34318;45.818;15.964;2024-01-10T13:06:37;78.00;;;70.22;;
43996;SDS011;34318;45.818;15.964;2024-01-10T13:09:06;81.35;;;73.35;;
43996;SDS011;34318;45.818;15.964;2024-01-10T13:11:34;81.18;;;72.90;;
43996;SDS011;34318;45.818;15.964;2024-01-10T13:14:01;81.88;;;73.70;;
43996;SDS011;34318;45.818;15.964;2024-01-10T13:16:29;78.10;;;70.60;;
43996;SDS011;34318;45.818;15.964;2024-01-10T13:19:01;77.70;;;69.60;;
43996;SDS011;34318;45.818;15.964;2024-01-10T13:21:29;76.28;;;68.55;;
43996;SDS011;34318;45.818;15.964;2024-01-10T13:23:56;74.30;;;66.68;;
43996;SDS011;34318;45.818;15.964;2024-01-10T13:26:24;73.65;;;66.28;;
43996;SDS011;34318;45.818;15.964;2024-01-10T13:28:51;73.03;;;65.63;;
43996;SDS011;34318;45.818;15.964;2024-01-10T13:31:18;69.90;;;63.00;;
43996;SDS011;34318;45.818;15.964;2024-01-10T13:33:47;68.22;;;61.50;;
43996;SDS011;34318;45.818;15.964;2024-01-10T13:36:14;67.47;;;60.78;;
43996;SDS011;34318;45.818;15.964;2024-01-10T13:38:42;67.03;;;59.88;;
43996;SDS011;34318;45.818;15.964;2024-01-10T13:41:09;63.80;;;57.30;;
43996;SDS011;34318;45.818;15.964;2024-01-10T13:43:36;64.07;;;57.33;;
43996;SDS011;34318;45.818;15.964;2024-01-10T13:46:03;62.42;;;56.22;;
43996;SDS011;34318;45.818;15.964;2024-01-10T13:48:35;61.17;;;54.75;;
43996;SDS011;34318;45.818;15.964;2024-01-10T13:51:02;62.30;;;56.17;;
43996;SDS011;34318;45.818;15.964;2024-01-10T13:53:30;59.42;;;53.35;;
43996;SDS011;34318;45.818;15.964;2024-01-10T13:55:57;59.88;;;53.90;;
43996;SDS011;34318;45.818;15.964;2024-01-10T13:58:25;58.53;;;52.50;;
43996;SDS011;34318;45.818;15.964;2024-01-10T14:00:52;60.75;;;54.75;;
43996;SDS011;34318;45.818;15.964;2024-01-10T14:03:19;57.88;;;51.80;;
43996;SDS011;34318;45.818;15.964;2024-01-10T14:05:47;60.25;;;53.95;;
43996;SDS011;34318;45.818;15.964;2024-01-10T14:08:15;58.22;;;52.05;;
43996;SDS011;34318;45.818;15.964;2024-01-10T14:10:42;56.15;;;50.55;;
43996;SDS011;34318;45.818;15.964;2024-01-10T14:13:09;52.97;;;47.63;;
43996;SDS011;34318;45.818;15.964;2024-01-10T14:15:37;55.40;;;49.55;;
43996;SDS011;34318;45.818;15.964;2024-01-10T14:18:04;53.22;;;47.88;;
43996;SDS011;34318;45.818;15.964;2024-01-10T14:20:32;53.67;;;48.00;;
43996;SDS011;34318;45.818;15.964;2024-01-10T14:22:59;53.38;;;48.00;;
43996;SDS011;34318;45.818;15.964;2024-01-10T14:25:27;50.60;;;45.50;;
43996;SDS011;34318;45.818;15.964;2024-01-10T14:27:55;50.15;;;45.08;;
43996;SDS011;34318;45.818;15.964;2024-01-10T14:30:22;52.13;;;45.30;;
43996;SDS011;34318;45.818;15.964;2024-01-10T14:32:51;50.03;;;45.03;;